Time;durP1;ratioP1;P1;durP2;ratioP2;P2;SDS_P1;SDS_P2;PMS_P1;PMS_P2;Temp;Humidity;BMP_temperature;BMP_pressure;BME280_temperature;BME280_humidity;BME280_pressure;Samples;Min_cycle;Max_cycle;Signal;HPM_P1;HPM_P2
2023/05/21 00:02:17;;;;;;;6.25;4.50;;;14.40;81.60;;;;;;5035987;28;20045;-76
2023/05/21 00:04:46;;;;;;;5.65;4.75;;;14.40;81.60;;;;;;5035729;28;20044;-76
2023/05/21 00:07:14;;;;;;;7.30;4.43;;;14.40;81.60;;;;;;5019373;28;20040;-77
2023/05/21 00:09:40;;;;;;;4.40;4.00;;;14.40;81.60;;;;;;5036200;28;20389;-77
2023/05/21 00:12:07;;;;;;;7.63;4.50;;;14.40;81.70;;;;;;5019626;28;20037;-77
2023/05/21 00:14:33;;;;;;;6.38;4.60;;;14.40;81.60;;;;;;5019169;28;20037;-77
2023/05/21 00:16:59;;;;;;;8.10;4.38;;;14.40;81.80;;;;;;5019505;28;20053;-76
2023/05/21 00:19:26;;;;;;;5.93;4.85;;;14.40;81.70;;;;;;5035728;28;20501;-76
2023/05/21 00:21:52;;;;;;;5.85;4.35;;;14.40;81.80;;;;;;5019339;28;20045;-76
2023/05/21 00:24:17;;;;;;;5.97;3.80;;;14.40;81.90;;;;;;5018134;28;20053;-76
2023/05/21 00:26:43;;;;;;;7.32;4.78;;;14.40;82.20;;;;;;5035584;28;20056;-76
2023/05/21 00:29:09;;;;;;;6.05;4.95;;;14.40;81.70;;;;;;5018752;28;20493;-76
2023/05/21 00:31:35;;;;;;;5.70;4.55;;;14.30;82.20;;;;;;5018778;28;20067;-76
2023/05/21 00:34:00;;;;;;;6.57;5.05;;;14.30;82.10;;;;;;5035538;28;20067;-77
2023/05/21 00:36:26;;;;;;;7.75;5.03;;;14.30;82.20;;;;;;5019484;28;20037;-76
2023/05/21 00:38:52;;;;;;;7.78;4.68;;;14.30;82.20;;;;;;5052174;28;20397;-77
2023/05/21 00:41:18;;;;;;;5.85;4.63;;;14.30;82.40;;;;;;5018801;28;20079;-77
2023/05/21 00:43:44;;;;;;;5.13;4.28;;;14.30;82.30;;;;;;5051954;28;20056;-76
2023/05/21 00:46:12;;;;;;;5.88;5.00;;;14.30;82.60;;;;;;5035129;28;20075;-77
2023/05/21 00:48:39;;;;;;;5.97;4.30;;;14.30;82.70;;;;;;5045206;28;20055;-77
2023/05/21 00:51:05;;;;;;;8.13;5.20;;;14.20;82.40;;;;;;5055197;28;20044;-77
2023/05/21 00:53:33;;;;;;;7.45;5.22;;;14.30;82.70;;;;;;5055073;28;20036;-76
2023/05/21 00:56:00;;;;;;;5.68;5.03;;;14.20;82.30;;;;;;5022050;28;20040;-77
2023/05/21 00:58:26;;;;;;;5.88;4.30;;;14.30;82.30;;;;;;5055504;28;20056;-77
2023/05/21 01:00:54;;;;;;;7.20;4.88;;;14.30;82.40;;;;;;5056758;28;20047;-77
2023/05/21 01:03:21;;;;;;;5.70;4.45;;;14.20;82.50;;;;;;5039319;28;20083;-76
2023/05/21 01:05:52;;;;;;;8.88;5.00;;;14.20;82.40;;;;;;5055584;28;20393;-77
2023/05/21 01:08:21;;;;;;;6.95;4.50;;;14.20;82.40;;;;;;5059756;28;20053;-76
2023/05/21 01:10:51;;;;;;;10.23;6.07;;;14.30;82.40;;;;;;5054841;28;20028;-77
2023/05/21 01:13:17;;;;;;;7.60;4.80;;;14.30;82.40;;;;;;5064534;28;20024;-76
2023/05/21 01:15:44;;;;;;;5.65;3.85;;;14.30;82.40;;;;;;5080960;28;20032;-77
2023/05/21 01:18:11;;;;;;;7.20;4.57;;;14.20;82.30;;;;;;5064599;28;20024;-77
2023/05/21 01:20:36;;;;;;;7.18;4.50;;;14.30;82.40;;;;;;5097753;28;20032;-77
2023/05/21 01:23:03;;;;;;;10.00;5.63;;;14.30;82.20;;;;;;5080726;28;20027;-77
2023/05/21 01:25:28;;;;;;;4.95;4.50;;;14.30;82.20;;;;;;5047531;28;20084;-77
2023/05/21 01:27:54;;;;;;;5.28;4.35;;;14.30;82.30;;;;;;5063624;28;20036;-76
2023/05/21 01:30:22;;;;;;;7.90;4.57;;;14.30;82.40;;;;;;5063903;28;20083;-77
2023/05/21 01:32:57;;;;;;;6.35;4.80;;;14.20;82.20;;;;;;5063749;28;20033;-77
2023/05/21 01:35:37;;;;;;;6.70;4.45;;;14.20;82.30;;;;;;5081006;28;20075;-77
2023/05/21 01:38:06;;;;;;;7.60;4.28;;;14.20;82.20;;;;;;5062284;28;20048;-77
2023/05/21 01:40:46;;;;;;;5.70;4.40;;;14.20;82.40;;;;;;5076571;28;20036;-77
2023/05/21 01:43:14;;;;;;;6.55;3.67;;;14.20;82.40;;;;;;5059404;28;20123;-77
2023/05/21 01:45:41;;;;;;;7.60;4.63;;;14.20;82.20;;;;;;5059580;28;20059;-77
2023/05/21 01:48:08;;;;;;;6.10;4.43;;;14.20;82.20;;;;;;5058937;28;20060;-76
2023/05/21 01:50:36;;;;;;;7.53;4.85;;;14.20;82.10;;;;;;5043104;28;20465;-77
2023/05/21 01:53:04;;;;;;;7.28;5.28;;;14.20;82.00;;;;;;5058938;28;20040;-77
2023/05/21 01:55:30;;;;;;;5.60;4.18;;;14.20;81.90;;;;;;5026470;28;20138;-77
2023/05/21 01:57:58;;;;;;;7.18;4.90;;;14.30;82.10;;;;;;5059209;28;20037;-78
2023/05/21 02:00:27;;;;;;;6.63;4.68;;;14.20;82.10;;;;;;5042396;28;20070;-78
2023/05/21 02:02:53;;;;;;;8.23;5.28;;;14.20;82.30;;;;;;5042931;28;20075;-78
2023/05/21 02:05:18;;;;;;;7.82;4.85;;;14.10;82.40;;;;;;5042626;28;20114;-78
2023/05/21 02:07:44;;;;;;;6.88;4.85;;;14.20;82.50;;;;;;5058821;28;20037;-77
2023/05/21 02:10:11;;;;;;;8.20;5.15;;;14.10;82.60;;;;;;5058705;28;20555;-77
2023/05/21 02:12:37;;;;;;;8.48;5.40;;;14.10;82.70;;;;;;5075311;28;20447;-77
2023/05/21 02:15:03;;;;;;;7.40;4.78;;;14.10;82.90;;;;;;5058583;28;20044;-78
2023/05/21 02:17:32;;;;;;;6.38;5.32;;;14.10;82.90;;;;;;5041882;28;20047;-77
2023/05/21 02:20:06;;;;;;;7.97;5.47;;;14.10;82.80;;;;;;5042735;28;20051;-78
2023/05/21 02:22:32;;;;;;;7.40;5.18;;;14.10;83.00;;;;;;5041756;28;20040;-78
2023/05/21 02:24:58;;;;;;;7.07;5.22;;;14.00;83.10;;;;;;5074918;28;20118;-77
2023/05/21 02:27:23;;;;;;;9.30;5.35;;;14.00;83.00;;;;;;5041762;28;20140;-78
2023/05/21 02:29:49;;;;;;;8.13;5.95;;;14.00;83.10;;;;;;5075259;28;20044;-77
2023/05/21 02:32:15;;;;;;;7.43;5.13;;;14.00;83.20;;;;;;5075099;28;20050;-77
2023/05/21 02:34:41;;;;;;;6.10;4.78;;;14.00;83.20;;;;;;5041850;28;20052;-78
2023/05/21 02:37:08;;;;;;;6.28;4.82;;;14.10;83.20;;;;;;5058298;28;20530;-78
2023/05/21 02:39:34;;;;;;;7.43;6.15;;;14.00;83.30;;;;;;5042259;28;20075;-78
2023/05/21 02:42:00;;;;;;;6.65;5.82;;;14.10;83.30;;;;;;5041639;28;20041;-78
2023/05/21 02:44:25;;;;;;;10.00;6.25;;;14.00;83.40;;;;;;5041608;28;20041;-78
2023/05/21 02:46:51;;;;;;;11.52;7.22;;;14.00;83.70;;;;;;5073976;28;20040;-78
2023/05/21 02:49:16;;;;;;;7.32;5.35;;;14.00;83.50;;;;;;5024752;28;20544;-78
2023/05/21 02:51:42;;;;;;;9.65;6.43;;;14.00;83.90;;;;;;5041309;28;20404;-78
2023/05/21 02:54:08;;;;;;;9.90;6.47;;;14.00;83.70;;;;;;5057590;28;20043;-78
2023/05/21 02:56:33;;;;;;;7.50;5.30;;;14.00;83.90;;;;;;5041368;28;20047;-78
2023/05/21 02:58:59;;;;;;;12.82;6.50;;;14.10;84.00;;;;;;5041287;28;20591;-78
2023/05/21 03:01:25;;;;;;;9.27;6.68;;;14.10;84.00;;;;;;5041353;28;20028;-78
2023/05/21 03:03:50;;;;;;;9.23;6.88;;;14.10;84.00;;;;;;5024736;28;20036;-78
2023/05/21 03:06:16;;;;;;;10.13;6.97;;;14.10;84.00;;;;;;5057383;28;20040;-78
2023/05/21 03:08:42;;;;;;;11.88;6.63;;;14.10;84.20;;;;;;5040073;28;20045;-78
2023/05/21 03:11:08;;;;;;;12.32;6.78;;;14.10;84.30;;;;;;5040537;28;20044;-77
2023/05/21 03:13:33;;;;;;;12.07;6.47;;;14.00;84.60;;;;;;5040401;28;20500;-78
2023/05/21 03:15:59;;;;;;;9.50;7.22;;;14.10;84.60;;;;;;5040036;28;20067;-78
2023/05/21 03:18:25;;;;;;;10.63;6.63;;;14.10;84.50;;;;;;5040246;28;20048;-78
2023/05/21 03:20:50;;;;;;;9.32;6.13;;;14.10;84.70;;;;;;5023505;28;20044;-78
2023/05/21 03:23:16;;;;;;;11.10;6.28;;;14.00;84.80;;;;;;5073089;28;20124;-78
2023/05/21 03:25:42;;;;;;;12.82;7.47;;;14.00;84.80;;;;;;5023657;28;20048;-78
2023/05/21 03:28:08;;;;;;;13.48;6.38;;;14.00;84.90;;;;;;5056621;28;20039;-78
2023/05/21 03:30:35;;;;;;;11.52;7.45;;;14.00;85.00;;;;;;5040161;28;20048;-78
2023/05/21 03:33:02;;;;;;;11.50;7.18;;;14.00;85.00;;;;;;5056587;28;20040;-78
2023/05/21 03:35:28;;;;;;;8.85;5.82;;;13.90;85.20;;;;;;5040168;28;20048;-78
2023/05/21 03:37:53;;;;;;;11.10;8.02;;;13.90;85.20;;;;;;5040386;28;20045;-78
2023/05/21 03:40:20;;;;;;;11.75;7.32;;;13.90;85.20;;;;;;5073386;28;20124;-77
2023/05/21 03:42:46;;;;;;;12.93;7.88;;;13.80;85.20;;;;;;5057179;28;20532;-77
2023/05/21 03:45:12;;;;;;;12.40;8.05;;;13.70;85.40;;;;;;5056831;28;20043;-78
2023/05/21 03:47:38;;;;;;;7.75;5.60;;;13.70;85.60;;;;;;5054169;28;20048;-78
2023/05/21 03:50:04;;;;;;;12.13;6.95;;;13.70;85.50;;;;;;5053537;28;20053;-78
2023/05/21 03:52:30;;;;;;;14.15;7.53;;;13.70;85.60;;;;;;5020292;28;20045;-78
2023/05/21 03:54:56;;;;;;;12.85;7.38;;;13.60;85.60;;;;;;5036608;28;20124;-78
2023/05/21 03:57:21;;;;;;;15.35;7.15;;;13.60;85.80;;;;;;5020428;28;20139;-78
2023/05/21 03:59:47;;;;;;;9.45;6.47;;;13.60;85.80;;;;;;5019834;28;20074;-76
2023/05/21 04:02:13;;;;;;;10.73;6.40;;;13.60;86.00;;;;;;5020131;28;20044;-78
2023/05/21 04:04:38;;;;;;;9.90;5.78;;;13.50;86.00;;;;;;5053131;28;20055;-78
2023/05/21 04:07:04;;;;;;;11.88;7.32;;;13.60;86.10;;;;;;5053225;28;20473;-78
2023/05/21 04:09:30;;;;;;;13.77;7.50;;;13.50;86.10;;;;;;5036503;28;20578;-77
2023/05/21 04:11:55;;;;;;;11.23;6.72;;;13.50;86.30;;;;;;5052726;28;20111;-78
2023/05/21 04:14:22;;;;;;;8.48;6.13;;;13.50;86.30;;;;;;5019730;28;20159;-78
2023/05/21 04:16:48;;;;;;;12.20;6.40;;;13.50;86.50;;;;;;5020239;28;20393;-78
2023/05/21 04:19:14;;;;;;;11.55;7.53;;;13.50;86.30;;;;;;5020187;28;20059;-78
2023/05/21 04:21:40;;;;;;;13.65;7.30;;;13.40;86.30;;;;;;5036102;28;20123;-78
2023/05/21 04:24:06;;;;;;;10.68;6.63;;;13.50;86.60;;;;;;5036138;28;20048;-78
2023/05/21 04:26:32;;;;;;;14.00;7.13;;;13.50;86.40;;;;;;5035979;28;20041;-78
2023/05/21 04:29:02;;;;;;;12.98;8.60;;;13.40;86.50;;;;;;5018815;28;20486;-78
2023/05/21 04:31:30;;;;;;;12.95;6.10;;;13.40;86.60;;;;;;5035285;28;20045;-77
2023/05/21 04:33:56;;;;;;;9.82;6.03;;;13.40;86.70;;;;;;5019174;28;20496;-78
2023/05/21 04:36:23;;;;;;;12.60;6.13;;;13.40;86.70;;;;;;5003290;28;20037;-78
2023/05/21 04:38:49;;;;;;;10.27;6.28;;;13.40;86.90;;;;;;5035783;28;20048;-78
2023/05/21 04:41:17;;;;;;;11.07;6.25;;;13.50;86.80;;;;;;5036347;28;20102;-78
2023/05/21 04:43:43;;;;;;;12.18;7.68;;;13.50;86.70;;;;;;5036034;28;20041;-78
2023/05/21 04:46:09;;;;;;;9.80;5.82;;;13.50;86.90;;;;;;5036033;28;20564;-78
2023/05/21 04:48:34;;;;;;;14.25;5.90;;;13.50;86.70;;;;;;5035332;28;20409;-78
2023/05/21 04:51:00;;;;;;;9.23;5.78;;;13.50;86.80;;;;;;5035648;28;20048;-78
2023/05/21 04:53:26;;;;;;;9.05;5.10;;;13.50;86.70;;;;;;5035636;28;20064;-78
2023/05/21 04:55:51;;;;;;;10.35;5.88;;;13.60;86.60;;;;;;5003166;28;20051;-78
2023/05/21 04:58:17;;;;;;;10.68;6.07;;;13.50;86.60;;;;;;5019559;28;20052;-78
2023/05/21 05:00:45;;;;;;;15.05;7.10;;;13.60;86.50;;;;;;5002794;28;20040;-78
2023/05/21 05:03:11;;;;;;;11.25;6.20;;;13.60;86.50;;;;;;5019371;28;20045;-77
2023/05/21 05:05:37;;;;;;;14.82;5.95;;;13.70;86.50;;;;;;5018595;28;20037;-78
2023/05/21 05:08:03;;;;;;;14.90;6.38;;;13.70;86.50;;;;;;5019027;28;20083;-78
2023/05/21 05:10:29;;;;;;;10.07;5.88;;;13.70;86.50;;;;;;5018025;28;20072;-78
2023/05/21 05:12:55;;;;;;;10.35;5.63;;;13.70;86.30;;;;;;5018724;28;20068;-78
2023/05/21 05:15:20;;;;;;;9.05;4.97;;;13.80;86.40;;;;;;5051539;28;20183;-78
2023/05/21 05:17:49;;;;;;;12.00;6.55;;;13.80;86.30;;;;;;5052003;28;20045;-78
2023/05/21 05:20:15;;;;;;;11.48;5.63;;;13.80;86.20;;;;;;5034674;28;20052;-78
2023/05/21 05:22:41;;;;;;;10.65;5.07;;;13.80;86.00;;;;;;5001748;28;20049;-78
2023/05/21 05:25:07;;;;;;;10.50;5.20;;;13.90;85.90;;;;;;5051377;28;20106;-78
2023/05/21 05:27:32;;;;;;;11.82;6.15;;;13.90;85.60;;;;;;5018764;28;20037;-78
2023/05/21 05:29:58;;;;;;;10.60;5.75;;;13.90;85.70;;;;;;5051816;28;20044;-78
2023/05/21 05:32:24;;;;;;;12.80;5.40;;;14.00;85.80;;;;;;5051770;28;20067;-78
2023/05/21 05:34:50;;;;;;;13.43;5.50;;;14.00;85.80;;;;;;5051908;28;20408;-78
2023/05/21 05:37:16;;;;;;;15.10;6.90;;;14.00;85.90;;;;;;5019080;28;20049;-78
2023/05/21 05:39:41;;;;;;;13.07;5.47;;;14.00;85.90;;;;;;5051737;28;20041;-78
2023/05/21 05:42:07;;;;;;;16.17;5.55;;;14.00;85.90;;;;;;5035267;28;20044;-78
2023/05/21 05:44:33;;;;;;;11.23;5.72;;;14.00;85.90;;;;;;5019003;28;20045;-78
2023/05/21 05:46:58;;;;;;;11.43;5.05;;;14.00;85.80;;;;;;5002181;28;20481;-78
2023/05/21 05:49:24;;;;;;;6.75;4.40;;;14.10;85.70;;;;;;5051432;28;20048;-77
2023/05/21 05:51:50;;;;;;;10.30;4.95;;;14.10;85.80;;;;;;5038374;28;20068;-78
2023/05/21 05:54:16;;;;;;;11.93;5.03;;;14.10;85.70;;;;;;5071800;28;20107;-78
2023/05/21 05:56:41;;;;;;;10.20;6.00;;;14.10;85.70;;;;;;5054989;28;20530;-78
2023/05/21 05:59:07;;;;;;;12.23;5.38;;;14.10;85.70;;;;;;5038416;28;20045;-78
2023/05/21 06:01:33;;;;;;;12.68;6.15;;;14.20;85.80;;;;;;5071882;28;20040;-78
2023/05/21 06:03:59;;;;;;;11.68;4.65;;;14.20;85.70;;;;;;5038205;28;20040;-78
2023/05/21 06:06:25;;;;;;;9.52;4.88;;;14.20;85.60;;;;;;5038716;28;20130;-78
2023/05/21 06:08:51;;;;;;;11.23;5.43;;;14.20;85.50;;;;;;5054820;28;20044;-78
2023/05/21 06:11:17;;;;;;;10.73;5.75;;;14.20;85.30;;;;;;5055029;28;20167;-77
2023/05/21 06:13:43;;;;;;;12.05;5.88;;;14.30;85.10;;;;;;5038065;28;20036;-78
2023/05/21 06:16:10;;;;;;;11.93;5.78;;;14.20;85.00;;;;;;5037662;28;20508;-78
2023/05/21 06:18:36;;;;;;;12.00;5.60;;;14.20;85.30;;;;;;5037599;28;20480;-78
2023/05/21 06:21:02;;;;;;;9.80;6.13;;;14.30;85.40;;;;;;5038172;28;20048;-78
2023/05/21 06:23:27;;;;;;;10.15;5.50;;;14.30;85.50;;;;;;5057238;28;20036;-78
2023/05/21 06:25:53;;;;;;;11.80;5.65;;;14.30;85.40;;;;;;5025449;28;20052;-77
2023/05/21 06:28:19;;;;;;;10.32;5.75;;;14.30;85.40;;;;;;5024926;28;20040;-78
2023/05/21 06:30:45;;;;;;;8.25;4.90;;;14.30;85.50;;;;;;5058277;28;20447;-78
2023/05/21 06:33:11;;;;;;;10.68;4.70;;;14.40;85.30;;;;;;5025148;28;20036;-78
2023/05/21 06:35:38;;;;;;;14.25;6.00;;;14.40;85.10;;;;;;5057818;28;20051;-78
2023/05/21 06:38:04;;;;;;;9.38;5.10;;;14.50;85.10;;;;;;5058072;28;20400;-78
2023/05/21 06:40:30;;;;;;;9.18;5.00;;;14.50;84.90;;;;;;5058301;28;20032;-78
2023/05/21 06:42:56;;;;;;;9.82;5.20;;;14.60;84.80;;;;;;5058173;28;20052;-78
2023/05/21 06:45:22;;;;;;;7.78;4.93;;;14.60;84.40;;;;;;5057754;28;20045;-78
2023/05/21 06:47:48;;;;;;;11.95;5.07;;;14.70;84.40;;;;;;5057594;28;20076;-78
2023/05/21 06:50:13;;;;;;;9.02;4.20;;;14.80;84.00;;;;;;5041351;28;20052;-77
2023/05/21 06:52:39;;;;;;;11.55;5.70;;;14.90;83.80;;;;;;5041216;28;20043;-78
2023/05/21 06:55:05;;;;;;;6.00;4.22;;;15.00;83.60;;;;;;5074442;28;20036;-78
2023/05/21 06:57:31;;;;;;;8.68;4.97;;;15.10;83.30;;;;;;5041704;28;20040;-78
2023/05/21 06:59:57;;;;;;;9.55;4.63;;;15.30;83.10;;;;;;5075014;28;20369;-77
2023/05/21 07:02:23;;;;;;;8.80;4.13;;;15.40;82.30;;;;;;5074338;28;20043;-78
2023/05/21 07:04:48;;;;;;;8.70;5.57;;;15.50;82.20;;;;;;5040610;28;20093;-78
2023/05/21 07:07:14;;;;;;;9.20;4.50;;;15.60;81.90;;;;;;5057478;28;20444;-78
2023/05/21 07:09:40;;;;;;;9.70;4.85;;;15.60;81.60;;;;;;5040893;28;20280;-78
2023/05/21 07:12:06;;;;;;;6.72;4.13;;;15.70;81.20;;;;;;5057764;28;20041;-78
2023/05/21 07:14:31;;;;;;;11.00;4.88;;;15.80;81.00;;;;;;5024156;28;20032;-78
2023/05/21 07:16:57;;;;;;;11.10;5.22;;;15.90;80.60;;;;;;5040257;28;20048;-78
2023/05/21 07:19:23;;;;;;;8.25;5.00;;;15.90;80.60;;;;;;5040924;28;20043;-79
2023/05/21 07:21:48;;;;;;;13.25;5.13;;;16.00;80.60;;;;;;5024172;28;20453;-78
2023/05/21 07:24:14;;;;;;;9.75;5.47;;;16.10;80.50;;;;;;5056668;28;20515;-78
2023/05/21 07:26:40;;;;;;;10.07;5.47;;;16.20;79.90;;;;;;5024206;28;20113;-78
2023/05/21 07:29:06;;;;;;;8.90;5.72;;;16.30;79.40;;;;;;5024264;28;20090;-78
2023/05/21 07:31:32;;;;;;;9.05;6.20;;;16.40;79.50;;;;;;5040500;28;20040;-78
2023/05/21 07:33:57;;;;;;;7.28;5.95;;;16.40;79.30;;;;;;5040333;28;20028;-78
2023/05/21 07:36:23;;;;;;;8.43;5.70;;;16.40;79.50;;;;;;5073456;28;20032;-78
2023/05/21 07:38:49;;;;;;;8.80;5.85;;;16.40;78.90;;;;;;5040768;28;20098;-78
2023/05/21 07:41:15;;;;;;;8.52;4.63;;;16.40;78.60;;;;;;5056112;28;20133;-78
2023/05/21 07:43:41;;;;;;;8.88;5.60;;;16.50;78.60;;;;;;5040310;28;20037;-78
2023/05/21 07:46:06;;;;;;;9.23;6.25;;;16.50;78.40;;;;;;5056756;28;20470;-79
2023/05/21 07:48:32;;;;;;;11.02;5.60;;;16.60;78.20;;;;;;5063717;28;20053;-78
2023/05/21 07:50:59;;;;;;;11.30;5.80;;;16.60;78.40;;;;;;5036920;28;20049;-78
2023/05/21 07:53:24;;;;;;;7.18;5.10;;;16.50;78.70;;;;;;5053475;28;20044;-79
2023/05/21 07:55:50;;;;;;;7.95;4.97;;;16.60;78.40;;;;;;5020398;28;20037;-78
2023/05/21 07:58:18;;;;;;;9.60;5.18;;;16.60;78.00;;;;;;5037041;28;20056;-79
2023/05/21 08:00:46;;;;;;;9.50;5.72;;;16.60;77.50;;;;;;5036407;28;20055;-78
2023/05/21 08:03:15;;;;;;;6.43;4.80;;;16.60;77.30;;;;;;5036704;28;20037;-78
2023/05/21 08:05:47;;;;;;;6.93;4.20;;;16.60;77.30;;;;;;5036630;28;20083;-78
2023/05/21 08:08:18;;;;;;;8.25;5.82;;;16.50;77.50;;;;;;5019770;28;20064;-78
2023/05/21 08:10:45;;;;;;;10.52;4.60;;;16.60;77.70;;;;;;5020194;28;20048;-78
2023/05/21 08:13:11;;;;;;;7.10;4.93;;;16.60;77.80;;;;;;5036021;28;20041;-78
2023/05/21 08:15:37;;;;;;;6.50;4.15;;;16.60;77.60;;;;;;5052387;28;20083;-78
2023/05/21 08:18:04;;;;;;;7.82;4.97;;;16.60;76.90;;;;;;5052589;28;20501;-78
2023/05/21 08:20:31;;;;;;;9.77;4.93;;;16.50;77.20;;;;;;5019614;28;20041;-78
2023/05/21 08:22:57;;;;;;;12.93;4.88;;;16.50;76.90;;;;;;5003099;28;20051;-78
2023/05/21 08:25:23;;;;;;;10.30;4.13;;;16.40;77.10;;;;;;5019385;28;20123;-78
2023/05/21 08:27:48;;;;;;;10.50;4.70;;;16.40;77.50;;;;;;5052527;28;20041;-78
2023/05/21 08:30:14;;;;;;;9.25;4.30;;;16.30;77.60;;;;;;5019623;28;20045;-78
2023/05/21 08:32:40;;;;;;;7.28;4.50;;;16.30;77.70;;;;;;5002991;28;20600;-78
2023/05/21 08:35:07;;;;;;;8.52;4.32;;;16.30;77.70;;;;;;5035326;28;20063;-78
2023/05/21 08:37:33;;;;;;;6.85;3.78;;;16.30;77.80;;;;;;5035661;28;20386;-78
2023/05/21 08:39:58;;;;;;;9.32;4.18;;;16.30;77.90;;;;;;5035202;28;20055;-79
2023/05/21 08:42:48;;;;;;;6.03;4.07;;;16.40;77.60;;;;;;5035798;28;20037;-78
2023/05/21 08:45:19;;;;;;;6.78;4.53;;;16.30;77.60;;;;;;5002669;28;20518;-78
2023/05/21 08:47:45;;;;;;;8.88;4.00;;;16.30;77.80;;;;;;5020945;28;20497;-78
2023/05/21 08:50:19;;;;;;;6.57;4.22;;;16.40;78.00;;;;;;5019229;28;20047;-78
2023/05/21 08:52:45;;;;;;;9.45;4.28;;;16.50;77.50;;;;;;5035645;28;20393;-77
2023/05/21 08:55:11;;;;;;;6.47;4.20;;;16.50;77.30;;;;;;5002756;28;20522;-77
2023/05/21 08:57:41;;;;;;;7.10;3.95;;;16.60;77.00;;;;;;5019137;28;20052;-78
2023/05/21 09:00:07;;;;;;;9.07;4.10;;;16.60;76.40;;;;;;5051683;28;20067;-78
2023/05/21 09:02:37;;;;;;;8.95;5.40;;;16.60;76.20;;;;;;5002378;28;20142;-78
2023/05/21 09:05:03;;;;;;;9.52;5.00;;;16.70;75.70;;;;;;5019095;28;20037;-78
2023/05/21 09:07:33;;;;;;;10.05;4.35;;;16.80;75.30;;;;;;5019125;28;20045;-78
2023/05/21 09:10:11;;;;;;;7.03;4.50;;;16.90;75.20;;;;;;5019196;28;20072;-79
2023/05/21 09:12:37;;;;;;;10.68;4.97;;;17.00;75.40;;;;;;5018920;28;20515;-78
2023/05/21 09:15:04;;;;;;;9.07;4.10;;;17.00;75.40;;;;;;5051151;28;20037;-78
2023/05/21 09:17:29;;;;;;;7.22;4.18;;;17.00;75.40;;;;;;5018424;28;20037;-78
2023/05/21 09:20:14;;;;;;;5.85;3.78;;;17.00;73.80;;;;;;5018498;28;20063;-78
2023/05/21 09:22:41;;;;;;;6.45;3.88;;;17.20;74.00;;;;;;5018058;28;20044;-79
2023/05/21 09:25:08;;;;;;;8.48;4.28;;;17.30;74.50;;;;;;5034716;28;20052;-78
2023/05/21 09:27:35;;;;;;;9.38;4.07;;;17.50;74.50;;;;;;5018597;28;20041;-78
2023/05/21 09:30:09;;;;;;;7.85;3.92;;;17.70;73.60;;;;;;5035030;28;20483;-78
2023/05/21 09:32:35;;;;;;;6.32;4.03;;;17.80;73.80;;;;;;5018761;28;20060;-78
2023/05/21 09:35:14;;;;;;;6.55;3.80;;;17.90;73.80;;;;;;5051027;28;20041;-78
2023/05/21 09:37:46;;;;;;;7.10;4.35;;;18.00;73.30;;;;;;5034937;28;20397;-79
2023/05/21 09:40:21;;;;;;;12.63;4.32;;;18.00;72.80;;;;;;5017912;28;20087;-79
2023/05/21 09:42:49;;;;;;;8.02;4.13;;;18.00;73.10;;;;;;5018193;28;20444;-79
2023/05/21 09:45:23;;;;;;;6.63;3.60;;;18.00;72.80;;;;;;5017715;28;20120;-79
2023/05/21 09:47:50;;;;;;;6.38;4.00;;;18.00;71.70;;;;;;5035894;28;20469;-78
2023/05/21 09:50:23;;;;;;;7.85;4.13;;;18.00;72.10;;;;;;5037476;28;20056;-79
2023/05/21 09:52:51;;;;;;;12.00;4.85;;;18.00;72.40;;;;;;5037755;28;20040;-78
2023/05/21 09:55:21;;;;;;;9.48;5.05;;;18.10;71.70;;;;;;5021382;28;20053;-79
2023/05/21 09:57:47;;;;;;;9.90;4.30;;;18.20;71.30;;;;;;5057131;28;20079;-79
2023/05/21 10:00:26;;;;;;;8.32;4.60;;;18.30;71.60;;;;;;5041741;28;20040;-79
2023/05/21 10:02:56;;;;;;;7.28;4.70;;;18.40;72.30;;;;;;5041375;28;20043;-78
2023/05/21 10:05:32;;;;;;;5.70;4.38;;;18.60;71.90;;;;;;5041913;28;20051;-79
2023/05/21 10:08:03;;;;;;;5.95;4.13;;;18.70;71.50;;;;;;5041652;28;20138;-78
2023/05/21 10:10:30;;;;;;;12.65;4.78;;;18.90;71.20;;;;;;5042141;28;20036;-78
2023/05/21 10:13:07;;;;;;;9.40;4.43;;;19.10;71.20;;;;;;5058573;28;20086;-79
2023/05/21 10:15:45;;;;;;;7.53;4.20;;;19.30;70.30;;;;;;5058104;28;20123;-79
2023/05/21 10:18:12;;;;;;;7.07;4.07;;;19.40;69.10;;;;;;5041872;28;20442;-79
2023/05/21 10:20:38;;;;;;;8.15;3.58;;;19.50;68.70;;;;;;5041731;28;20083;-79
2023/05/21 10:23:05;;;;;;;7.70;4.78;;;19.60;67.60;;;;;;5041560;28;20048;-79
2023/05/21 10:25:31;;;;;;;5.18;3.33;;;19.60;68.10;;;;;;5041336;28;20044;-77
2023/05/21 10:27:57;;;;;;;6.22;3.55;;;19.60;67.40;;;;;;5041017;28;20127;-78
2023/05/21 10:30:23;;;;;;;6.45;3.40;;;19.50;67.50;;;;;;5041039;28;20443;-77
2023/05/21 10:32:49;;;;;;;9.65;4.45;;;19.50;67.30;;;;;;5041474;28;20076;-77
2023/05/21 10:35:16;;;;;;;11.02;4.68;;;19.40;67.50;;;;;;5057828;28;20097;-77
2023/05/21 10:37:44;;;;;;;7.20;3.53;;;19.40;68.30;;;;;;5058194;28;20036;-77
2023/05/21 10:40:10;;;;;;;7.55;4.28;;;19.40;68.10;;;;;;5057929;28;20095;-77
2023/05/21 10:43:16;;;;;;;7.43;4.53;;;19.40;67.80;;;;;;5040941;28;20040;-77
2023/05/21 10:45:49;;;;;;;7.25;3.47;;;19.40;67.80;;;;;;5057838;28;20044;-77
2023/05/21 10:48:33;;;;;;;4.88;3.20;;;19.40;68.00;;;;;;5037607;28;20060;-77
2023/05/21 10:51:00;;;;;;;5.97;3.80;;;19.30;67.60;;;;;;5021115;28;20584;-77
2023/05/21 10:53:46;;;;;;;6.40;3.72;;;19.30;67.50;;;;;;5020877;28;20037;-77
2023/05/21 10:56:43;;;;;;;6.53;3.20;;;19.40;67.30;;;;;;5054254;28;20550;-77
2023/05/21 10:59:53;;;;;;;8.15;4.05;;;19.40;67.60;;;;;;5020982;28;20041;-77
2023/05/21 11:02:20;;;;;;;9.02;4.00;;;19.60;67.20;;;;;;4938852;29;20035;-77
2023/05/21 11:04:56;;;;;;;7.55;3.75;;;19.70;67.10;;;;;;4938700;29;20527;-77
2023/05/21 11:07:25;;;;;;;7.40;4.10;;;19.90;67.50;;;;;;4991339;28;20057;-77
2023/05/21 11:09:51;;;;;;;9.85;4.53;;;19.90;66.20;;;;;;5019764;28;20037;-78
2023/05/21 11:12:16;;;;;;;9.25;4.30;;;20.00;67.00;;;;;;5004121;28;20025;-77
2023/05/21 11:14:58;;;;;;;6.82;3.85;;;20.10;66.50;;;;;;5036487;28;20033;-77
2023/05/21 11:17:39;;;;;;;6.45;3.28;;;20.20;65.60;;;;;;5036904;28;20432;-77
2023/05/21 11:20:12;;;;;;;10.63;4.22;;;20.20;65.90;;;;;;5036474;28;20052;-77
2023/05/21 11:22:38;;;;;;;7.43;4.25;;;20.30;65.90;;;;;;5036762;28;20489;-78
2023/05/21 11:25:04;;;;;;;8.02;4.80;;;20.30;64.90;;;;;;5019763;28;20055;-77
2023/05/21 11:27:34;;;;;;;9.35;4.63;;;20.40;65.50;;;;;;5036171;28;20516;-78
2023/05/21 11:30:04;;;;;;;9.20;4.55;;;20.50;65.70;;;;;;5019828;28;20095;-76
2023/05/21 11:32:30;;;;;;;8.57;4.80;;;20.60;64.60;;;;;;5019942;28;20037;-77
2023/05/21 11:35:01;;;;;;;9.18;5.22;;;20.60;64.20;;;;;;5052969;28;20041;-81
2023/05/21 11:37:29;;;;;;;6.68;3.78;;;20.80;65.00;;;;;;5019837;28;20076;-79
2023/05/21 11:39:57;;;;;;;9.25;4.88;;;20.80;63.70;;;;;;5052776;28;20116;-80
2023/05/21 11:42:33;;;;;;;9.38;4.35;;;20.80;63.90;;;;;;5035982;28;20079;-78
2023/05/21 11:45:03;;;;;;;8.27;4.32;;;20.90;63.60;;;;;;5019483;28;20037;-77
2023/05/21 11:47:30;;;;;;;9.38;4.80;;;20.90;64.00;;;;;;5019811;28;20098;-78
2023/05/21 11:50:00;;;;;;;7.53;4.20;;;20.90;62.90;;;;;;5036355;28;20083;-79
2023/05/21 11:52:28;;;;;;;6.05;4.10;;;20.90;63.50;;;;;;5056046;28;20036;-77
2023/05/21 11:54:56;;;;;;;7.03;4.57;;;20.90;63.00;;;;;;5039148;28;20131;-79
2023/05/21 11:57:25;;;;;;;7.68;4.93;;;21.00;63.50;;;;;;5039028;28;20041;-79
2023/05/21 11:59:51;;;;;;;7.18;4.15;;;21.20;63.40;;;;;;5072542;28;20496;-78
2023/05/21 12:02:21;;;;;;;7.28;4.05;;;21.20;63.20;;;;;;5039188;28;20094;-78
2023/05/21 12:04:49;;;;;;;9.45;4.80;;;21.30;62.40;;;;;;5038948;28;20131;-79
2023/05/21 12:07:17;;;;;;;10.18;5.07;;;21.30;62.80;;;;;;5038831;28;20041;-78
2023/05/21 12:09:47;;;;;;;10.40;5.85;;;21.30;62.60;;;;;;5055574;28;20052;-78
2023/05/21 12:12:24;;;;;;;8.77;4.85;;;21.30;62.40;;;;;;5055298;28;20452;-79
2023/05/21 12:14:52;;;;;;;9.18;4.97;;;21.40;63.00;;;;;;5055582;28;20464;-78
2023/05/21 12:17:22;;;;;;;8.85;4.40;;;21.50;62.60;;;;;;5055228;28;20040;-79
2023/05/21 12:19:50;;;;;;;8.55;4.72;;;21.50;62.20;;;;;;5038793;28;20040;-77
2023/05/21 12:22:16;;;;;;;9.02;4.07;;;21.60;62.30;;;;;;5055047;28;20099;-78
2023/05/21 12:24:47;;;;;;;7.30;4.40;;;21.60;62.00;;;;;;5055587;28;20041;-78
2023/05/21 12:27:15;;;;;;;7.30;4.30;;;21.70;61.70;;;;;;5055278;28;20052;-80
2023/05/21 12:29:44;;;;;;;7.57;4.05;;;21.70;61.40;;;;;;5023025;28;20087;-77
2023/05/21 12:32:12;;;;;;;6.65;3.75;;;21.80;61.50;;;;;;5071836;28;20032;-78
2023/05/21 12:34:49;;;;;;;9.35;4.30;;;21.90;61.40;;;;;;5055143;28;20086;-78
2023/05/21 12:37:22;;;;;;;10.50;4.97;;;21.90;61.80;;;;;;5055174;28;20117;-79
2023/05/21 12:39:50;;;;;;;8.77;4.32;;;21.90;61.90;;;;;;5038590;28;20040;-76
2023/05/21 12:42:23;;;;;;;7.22;4.35;;;21.90;61.50;;;;;;5038340;28;20044;-78
2023/05/21 12:44:51;;;;;;;11.38;5.13;;;22.00;61.50;;;;;;5038337;28;20093;-77
2023/05/21 12:47:23;;;;;;;9.93;5.32;;;21.90;60.50;;;;;;5054929;28;20123;-78